createdAt,value
2019-05-03T00:06:19.962Z,5.8
2019-05-03T00:08:02.022Z,5.8
2019-05-03T00:08:51.823Z,5.8
2019-05-03T00:09:39.954Z,5.8
2019-05-03T00:10:32.265Z,5.7
2019-05-03T00:11:22.549Z,5.8
2019-05-03T00:12:12.418Z,5.8
2019-05-03T00:13:02.347Z,5.7
2019-05-03T00:13:50.252Z,5.6
2019-05-03T00:14:42.643Z,5.7
2019-05-03T00:15:32.794Z,5.6
2019-05-03T00:16:22.861Z,5.6
2019-05-03T00:17:12.683Z,5.6
2019-05-03T00:18:02.854Z,5.6
2019-05-03T00:18:52.605Z,5.6
2019-05-03T00:19:43.168Z,5.6
2019-05-03T00:20:33.086Z,5.6
2019-05-03T00:21:22.886Z,5.6
2019-05-03T00:22:12.826Z,5.6
2019-05-03T00:23:03.379Z,5.6
2019-05-03T00:23:52.956Z,5.6
2019-05-03T00:24:43.601Z,5.6
2019-05-03T00:25:33.596Z,5.6
2019-05-03T00:26:23.186Z,5.6
2019-05-03T00:27:13.415Z,5.6
2019-05-03T00:28:03.736Z,5.6
2019-05-03T00:28:53.916Z,5.6
2019-05-03T00:29:43.648Z,5.6
2019-05-03T00:30:33.673Z,5.6
2019-05-03T00:31:23.258Z,5.6
2019-05-03T00:32:13.908Z,5.6
2019-05-03T00:33:04.041Z,5.6
2019-05-03T00:33:53.363Z,5.6
2019-05-03T00:34:46.214Z,5.5
2019-05-03T00:36:23.965Z,5.5
2019-05-03T00:37:13.747Z,5.5
2019-05-03T00:38:03.763Z,5.5
2019-05-03T00:38:54.377Z,5.4
2019-05-03T00:39:43.786Z,5.4
2019-05-03T00:40:34.402Z,5.4
2019-05-03T00:41:23.502Z,5.4
2019-05-03T00:42:13.610Z,5.4
2019-05-03T00:43:04.302Z,5.4
2019-05-03T00:43:53.518Z,5.4
2019-05-03T00:44:43.881Z,5.4
2019-05-03T00:45:33.614Z,5.4
2019-05-03T00:46:23.777Z,5.4
2019-05-03T00:47:14.578Z,5.4
2019-05-03T00:48:03.947Z,5.3
2019-05-03T00:48:54.189Z,5.3
2019-05-03T00:49:44.289Z,5.3
2019-05-03T00:50:33.766Z,5.3
2019-05-03T00:51:24.264Z,5.3
2019-05-03T00:52:13.695Z,5.3
2019-05-03T00:53:04.042Z,5.3
2019-05-03T00:53:54.827Z,5.2
2019-05-03T00:54:44.337Z,5.2
2019-05-03T00:55:34.539Z,5.2
2019-05-03T00:56:23.172Z,5.1
2019-05-03T00:57:13.284Z,5.1
2019-05-03T00:58:04.488Z,5.1
2019-05-03T00:58:54.981Z,5.1
2019-05-03T01:00:34.339Z,5.1
2019-05-03T01:01:24.541Z,5.1
2019-05-03T01:03:04.055Z,5
2019-05-03T01:03:54.756Z,5
2019-05-03T01:05:35.108Z,5
2019-05-03T01:07:14.473Z,5
2019-05-03T01:08:04.319Z,4.9
2019-05-03T01:08:54.641Z,4.9
2019-05-03T01:10:34.866Z,4.9
2019-05-03T01:12:14.591Z,4.9
2019-05-03T01:13:54.486Z,4.8
2019-05-03T01:14:45.040Z,4.8
2019-05-03T01:16:25.181Z,4.8
2019-05-03T01:18:54.839Z,4.8
2019-05-03T01:55:48.020Z,4.3
2019-05-03T02:21:29.994Z,3.9
2019-05-03T02:22:20.069Z,3.9
2019-05-03T02:24:49.981Z,3.9
2019-05-03T02:25:49.771Z,3.9
2019-05-03T02:27:22.453Z,3.8
2019-05-03T02:28:12.453Z,3.9
2019-05-03T02:29:02.414Z,3.9
2019-05-03T02:29:52.097Z,3.9
2019-05-03T02:30:43.661Z,3.9
2019-05-03T02:31:33.683Z,3.9
2019-05-03T02:32:24.141Z,3.9
2019-05-03T02:33:14.292Z,4
2019-05-03T02:34:03.245Z,4
2019-05-03T02:34:54.017Z,4
2019-05-03T02:35:43.915Z,4
2019-05-03T02:36:34.573Z,4
2019-05-03T02:37:23.938Z,4
2019-05-03T02:38:14.251Z,4
2019-05-03T02:39:04.070Z,4
2019-05-03T02:39:54.103Z,4.1
2019-05-03T02:40:44.452Z,4
2019-05-03T02:41:31.248Z,4.1
2019-05-03T02:42:21.558Z,4.1
2019-05-03T02:43:11.602Z,4.1
2019-05-03T02:44:01.413Z,4
2019-05-03T02:44:51.492Z,4
2019-05-03T02:45:41.525Z,3.9
2019-05-03T02:46:31.603Z,3.9
2019-05-03T02:47:21.911Z,3.9
2019-05-03T02:48:11.988Z,3.9
2019-05-03T02:49:02.127Z,3.9
2019-05-03T02:49:51.845Z,3.9
2019-05-03T02:50:42.170Z,3.9
2019-05-03T02:51:32.280Z,3.9
2019-05-03T02:52:22.313Z,3.9
2019-05-03T02:53:12.085Z,3.9
2019-05-03T02:54:02.412Z,3.9
2019-05-03T02:54:52.217Z,3.9
2019-05-03T02:55:43.235Z,3.9
2019-05-03T02:57:22.661Z,3.9
2019-05-03T02:58:12.170Z,3.8
2019-05-03T02:59:02.530Z,3.8
2019-05-03T02:59:55.430Z,3.8
2019-05-03T03:02:26.223Z,3.8
2019-05-03T03:06:40.934Z,3.8
2019-05-03T03:07:31.272Z,3.8
2019-05-03T03:08:21.598Z,3.8
2019-05-03T03:09:11.396Z,3.7
2019-05-03T03:10:01.446Z,3.7
2019-05-03T03:10:51.783Z,3.7
2019-05-03T03:11:41.574Z,3.7
2019-05-03T03:12:31.614Z,3.7
2019-05-03T03:13:21.959Z,3.6
2019-05-03T03:14:11.785Z,3.6
2019-05-03T03:15:01.816Z,3.6
2019-05-03T03:15:51.876Z,3.6
2019-05-03T03:16:42.232Z,3.6
2019-05-03T03:17:32.321Z,3.6
2019-05-03T03:18:22.080Z,3.6
2019-05-03T03:19:12.399Z,3.6
2019-05-03T03:20:01.982Z,3.6
2019-05-03T03:20:52.239Z,3.6
2019-05-03T03:21:42.293Z,3.6
2019-05-03T03:22:32.096Z,3.6
2019-05-03T03:23:22.448Z,3.6
2019-05-03T03:24:12.814Z,3.6
2019-05-03T03:25:05.379Z,3.6
2019-05-03T03:26:48.646Z,3.5
2019-05-03T03:28:25.131Z,3.5
2019-05-03T03:30:03.003Z,3.5
2019-05-03T03:30:57.136Z,3.5
2019-05-03T03:32:39.773Z,3.5
2019-05-03T03:34:17.857Z,3.5
2019-05-03T03:35:22.666Z,3.5
2019-05-03T03:36:54.257Z,3.5
2019-05-03T03:43:58.015Z,3.5
2019-05-03T03:46:32.622Z,3.6
2019-05-03T03:57:19.634Z,3.8
2019-05-03T03:58:09.656Z,3.8
2019-05-03T04:00:39.851Z,3.9
2019-05-03T04:01:29.884Z,3.9
2019-05-03T04:02:19.996Z,3.9
2019-05-03T04:03:10.063Z,3.9
2019-05-03T04:04:00.088Z,4
2019-05-03T04:04:49.855Z,4
2019-05-03T04:05:40.251Z,4
2019-05-03T04:06:30.266Z,4.1
2019-05-03T04:07:20.326Z,4.1
2019-05-03T04:08:10.104Z,4.1
2019-05-03T04:09:00.186Z,4.1
2019-05-03T04:09:50.509Z,4.2
2019-05-03T04:10:55.816Z,4.2
2019-05-03T04:12:20.715Z,4.3
2019-05-03T04:13:10.763Z,4.3
2019-05-03T04:14:00.560Z,4.4
2019-05-03T04:14:50.918Z,4.4
2019-05-03T04:15:40.680Z,4.4
2019-05-03T04:16:30.741Z,4.4
2019-05-03T04:17:21.089Z,4.5
2019-05-03T04:18:10.846Z,4.5
2019-05-03T04:19:00.648Z,4.6
2019-05-03T04:19:51.280Z,4.6
2019-05-03T04:20:41.307Z,4.6
2019-05-03T04:21:30.833Z,4.6
2019-05-03T04:22:21.477Z,4.7
2019-05-03T04:23:10.955Z,4.8
2019-05-03T04:24:01.285Z,4.8
2019-05-03T04:24:51.339Z,4.8
2019-05-03T04:25:41.694Z,4.8
2019-05-03T04:26:31.944Z,4.9
2019-05-03T04:27:29.270Z,4.9
2019-05-03T04:29:01.958Z,5
2019-05-03T04:29:51.992Z,5
2019-05-03T04:30:42.062Z,5
2019-05-03T04:31:32.119Z,5.1
2019-05-03T04:32:30.082Z,5.1
2019-05-03T04:34:04.559Z,5.1
2019-05-03T04:35:42.407Z,5.3
2019-05-03T04:36:32.214Z,5.3
2019-05-03T04:37:22.534Z,5.3
2019-05-03T04:38:12.599Z,5.3
2019-05-03T04:39:05.234Z,5.4
2019-05-03T04:40:45.882Z,5.4
2019-05-03T04:42:25.882Z,5.5
2019-05-03T04:44:02.753Z,5.6
2019-05-03T04:44:52.824Z,5.7
2019-05-03T04:45:45.451Z,5.8
2019-05-03T04:47:26.043Z,6
2019-05-03T04:49:06.375Z,6.3
2019-05-03T04:56:36.911Z,8.1
2019-05-03T04:57:51.646Z,8.3
2019-05-03T04:59:06.596Z,8.8
2019-05-03T05:16:41.167Z,14.1
2019-05-03T05:34:10.423Z,20.9
2019-05-03T06:04:41.360Z,36.2
2019-05-03T06:05:31.415Z,36.7
2019-05-03T06:06:21.479Z,37.2
2019-05-03T06:07:10.970Z,37.6
2019-05-03T06:08:01.606Z,38.1
2019-05-03T06:08:51.663Z,38.5
2019-05-03T06:09:41.707Z,38.9
2019-05-03T06:10:31.780Z,39.3
2019-05-03T06:11:21.565Z,39.6
2019-05-03T06:12:11.895Z,39.9
2019-05-03T06:13:01.962Z,40.3
2019-05-03T06:13:51.779Z,40.7
2019-05-03T06:14:42.087Z,41.1
2019-05-03T06:15:31.617Z,41.4
2019-05-03T06:16:21.937Z,41.9
2019-05-03T06:17:12.329Z,42.3
2019-05-03T06:18:01.777Z,42.7
2019-05-03T06:18:52.125Z,43.1
2019-05-03T06:19:42.447Z,43.6
2019-05-03T06:20:32.517Z,43.9
2019-05-03T06:21:22.589Z,44.4
2019-05-03T06:22:12.642Z,44.8
2019-05-03T06:23:02.435Z,45.3
2019-05-03T06:23:53.064Z,46.6
2019-05-03T06:24:42.544Z,47.3
2019-05-03T06:25:32.607Z,46.5
2019-05-03T06:26:22.944Z,45
2019-05-03T06:27:12.994Z,41.9
2019-05-03T06:28:21.297Z,39.1
2019-05-03T06:29:43.209Z,36.6
2019-05-03T06:30:35.005Z,36.1
2019-05-03T06:33:05.068Z,36.2
2019-05-03T06:35:35.223Z,37.9
2019-05-03T06:42:25.940Z,43.9
2019-05-03T06:46:35.436Z,47.1
2019-05-03T06:49:50.155Z,42.6
2019-05-03T06:52:29.957Z,42
2019-05-03T06:55:49.150Z,44.6
2019-05-03T07:04:41.492Z,46.4
2019-05-03T07:05:31.387Z,47.1
2019-05-03T07:06:41.956Z,47.3
2019-05-03T07:08:01.015Z,47.1
2019-05-03T07:08:50.526Z,47.1
2019-05-03T07:09:41.690Z,47.1
2019-05-03T07:10:31.454Z,47.4
2019-05-03T07:11:21.874Z,47.8
2019-05-03T07:12:11.861Z,48.1
2019-05-03T07:13:01.675Z,48.4
2019-05-03T07:13:51.782Z,48.6
2019-05-03T07:14:44.793Z,48.7
2019-05-03T07:16:21.924Z,48.9
2019-05-03T07:17:15.296Z,49.1
2019-05-03T07:18:52.359Z,49.4
2019-05-03T07:19:41.865Z,49.6
2019-05-03T07:20:32.211Z,49.8
2019-05-03T07:21:22.278Z,49.9
2019-05-03T07:22:12.329Z,50.1
2019-05-03T07:23:04.829Z,50.1
2019-05-03T07:24:42.858Z,50.5
2019-05-03T07:25:35.183Z,50.7
2019-05-03T07:27:27.370Z,51.1
2019-05-03T07:29:07.768Z,51.5
2019-05-03T07:33:56.530Z,52.4
2019-05-03T07:34:45.778Z,52.6
2019-05-03T07:35:48.385Z,52.7
2019-05-03T07:40:36.270Z,53.6
2019-05-03T07:41:28.853Z,53.7
2019-05-03T07:44:46.394Z,54.3
2019-05-03T07:45:36.415Z,54.4
2019-05-03T07:46:26.358Z,54.6
2019-05-03T07:47:16.385Z,54.8
2019-05-03T07:48:56.527Z,54.9
2019-05-03T07:49:46.378Z,55.1
2019-05-03T07:50:37.187Z,55.3
2019-05-03T07:51:26.486Z,55.4
2019-05-03T07:52:16.792Z,55.5
2019-05-03T07:53:06.679Z,55.6
2019-05-03T07:53:56.977Z,55.8
2019-05-03T07:54:47.023Z,55.9
2019-05-03T07:55:36.619Z,56
2019-05-03T07:56:27.371Z,56.2
2019-05-03T07:57:19.080Z,56.3
2019-05-03T07:58:06.383Z,56.5
2019-05-03T07:59:07.256Z,56.7
2019-05-03T08:00:36.350Z,56.8
2019-05-03T08:01:27.181Z,56.8
2019-05-03T08:02:16.505Z,56.9
2019-05-03T08:03:07.028Z,56.9
2019-05-03T08:03:56.958Z,56.9
2019-05-03T08:04:46.440Z,56.9
2019-05-03T08:05:36.941Z,56.9
2019-05-03T08:06:26.756Z,56.9
2019-05-03T08:07:26.973Z,56.8
2019-05-03T08:08:56.544Z,56.4
2019-05-03T08:09:47.268Z,56.4
2019-05-03T08:10:36.536Z,56.4
2019-05-03T08:11:26.150Z,56.4
2019-05-03T08:12:17.314Z,56.5
2019-05-03T08:13:06.762Z,56.6
2019-05-03T08:13:56.756Z,56.7
2019-05-03T08:15:36.533Z,56.9
2019-05-03T08:16:27.213Z,57
2019-05-03T08:17:16.949Z,57.2
2019-05-03T08:18:06.945Z,57.3
2019-05-03T08:18:57.442Z,57.4
2019-05-03T08:19:46.882Z,57.6
2019-05-03T08:20:37.070Z,57.7
2019-05-03T08:21:27.376Z,57.8
2019-05-03T08:22:17.073Z,57.9
2019-05-03T08:23:07.355Z,58.1
2019-05-03T08:23:57.737Z,58.2
2019-05-03T08:24:47.282Z,58.4
2019-05-03T08:25:37.497Z,58.4
2019-05-03T08:26:27.616Z,58.5
2019-05-03T08:27:17.452Z,58.6
2019-05-03T08:28:07.212Z,58.7
2019-05-03T08:28:57.576Z,58.8
2019-05-03T08:29:47.624Z,59
2019-05-03T08:30:37.718Z,59.2
2019-05-03T08:31:28.537Z,59.4
2019-05-03T08:32:17.805Z,59.6
2019-05-03T08:33:07.869Z,59.8
2019-05-03T08:33:57.442Z,59.8
2019-05-03T08:34:48.007Z,60
2019-05-03T08:35:38.049Z,60.1
2019-05-03T08:36:27.844Z,60.2
2019-05-03T08:37:18.181Z,60.3
2019-05-03T08:38:08.244Z,60.4
2019-05-03T08:38:58.351Z,60.6
2019-05-03T08:39:48.385Z,60.8
2019-05-03T08:40:38.170Z,60.9
2019-05-03T08:41:28.479Z,61
2019-05-03T08:42:18.310Z,61.1
2019-05-03T08:43:08.619Z,61.1
2019-05-03T08:43:58.672Z,61.2
2019-05-03T08:44:48.454Z,61.3
2019-05-03T08:45:38.501Z,61.4
2019-05-03T08:46:28.844Z,61.6
2019-05-03T08:47:18.912Z,61.7
2019-05-03T08:48:08.968Z,61.8
2019-05-03T08:48:58.488Z,61.9
2019-05-03T08:49:49.116Z,62
2019-05-03T08:50:39.167Z,62.1
2019-05-03T08:51:29.258Z,62.2
2019-05-03T08:52:18.746Z,62.3
2019-05-03T08:53:09.376Z,62.4
2019-05-03T08:53:59.143Z,62.4
2019-05-03T08:54:49.475Z,62.5
2019-05-03T08:55:39.273Z,62.6
2019-05-03T08:56:29.316Z,62.7
2019-05-03T08:57:18.948Z,62.8
2019-05-03T08:58:09.813Z,62.9
2019-05-03T08:58:59.511Z,62.9
2019-05-03T08:59:49.042Z,62.8
2019-05-03T09:00:39.901Z,62.8
2019-05-03T09:01:29.970Z,62.7
2019-05-03T09:02:20.983Z,62.8
2019-05-03T09:03:09.805Z,62.8
2019-05-03T09:03:59.882Z,62.9
2019-05-03T09:04:50.227Z,63
2019-05-03T09:05:39.723Z,63.1
2019-05-03T09:06:30.338Z,63.1
2019-05-03T09:07:20.527Z,63.1
2019-05-03T09:08:10.193Z,63.2
2019-05-03T09:08:59.987Z,63.2
2019-05-03T09:09:50.319Z,63.3
2019-05-03T09:10:40.655Z,63.3
2019-05-03T09:11:38.148Z,63.4
2019-05-03T09:13:10.592Z,63.6
2019-05-03T09:14:00.622Z,63.7
2019-05-03T09:14:50.972Z,63.8
2019-05-03T09:15:40.754Z,63.9
2019-05-03T09:16:30.797Z,63.9
2019-05-03T09:17:20.872Z,64.1
2019-05-03T09:18:17.420Z,64.1
2019-05-03T09:44:56.253Z,61.9
2019-05-03T09:49:17.945Z,58.1
2019-05-03T09:52:26.223Z,54.7
2019-05-03T09:54:06.276Z,54.1
2019-05-03T09:58:16.235Z,57.2
2019-05-03T09:59:06.373Z,57.6
2019-05-03T10:00:01.717Z,57.8
2019-05-03T10:01:36.337Z,58.3
2019-05-03T10:02:26.321Z,58.4
2019-05-03T10:05:40.948Z,60
2019-05-03T10:06:31.274Z,60.5
2019-05-03T10:07:21.037Z,60.9
2019-05-03T10:08:11.103Z,61.2
2019-05-03T10:09:01.164Z,61.5
2019-05-03T10:09:51.256Z,61.7
2019-05-03T10:10:41.569Z,61.9
2019-05-03T10:11:31.373Z,62.3
2019-05-03T10:12:21.677Z,62.7
2019-05-03T10:13:27.765Z,63.1
2019-05-03T10:14:51.873Z,63.7
2019-05-03T10:15:41.696Z,64
2019-05-03T10:16:31.737Z,64.3
2019-05-03T10:17:21.777Z,64.5
2019-05-03T10:18:12.889Z,64.8
2019-05-03T10:19:02.173Z,65
2019-05-03T10:19:51.683Z,65.3
2019-05-03T10:20:44.437Z,65.5
2019-05-03T10:22:22.463Z,65.8
2019-05-03T10:23:12.219Z,65.8
2019-05-03T10:24:02.274Z,65.6
2019-05-03T10:24:52.596Z,65.3
2019-05-03T10:25:42.725Z,65.3
2019-05-03T10:26:32.732Z,65.3
2019-05-03T10:27:22.533Z,65.1
2019-05-03T10:28:12.856Z,64.5
2019-05-03T10:29:02.763Z,64.3
2019-05-03T10:30:09.032Z,64.3
2019-05-03T10:31:32.828Z,64.6
2019-05-03T10:32:23.154Z,64.9
2019-05-03T10:33:15.752Z,65
2019-05-03T10:34:52.785Z,63.6
2019-05-03T10:35:45.555Z,62.9
2019-05-03T10:37:25.570Z,63.3
2019-05-03T10:40:45.192Z,63.8
2019-05-03T10:44:06.248Z,62.8
2019-05-03T11:00:57.633Z,62.8
2019-05-03T11:30:00.665Z,65.9
2019-05-03T11:31:05.960Z,66.1
2019-05-03T11:47:29.438Z,67.5
2019-05-03T11:48:19.533Z,67.6
2019-05-03T11:57:29.499Z,64.9
2019-05-03T11:58:19.587Z,64
2019-05-03T11:59:09.612Z,63.1
2019-05-03T11:59:59.400Z,62.8
2019-05-03T12:00:49.450Z,62.6
2019-05-03T12:01:39.514Z,62.6
2019-05-03T12:02:30.935Z,62.9
2019-05-03T12:03:19.650Z,63.3
2019-05-03T12:05:56.245Z,63.8
2019-05-03T12:09:08.060Z,63.9
2019-05-03T12:12:47.669Z,63.9
2019-05-03T12:14:16.236Z,63.8
2019-05-03T12:17:58.701Z,63.9
2019-05-03T12:20:39.997Z,63.7
2019-05-03T12:22:54.339Z,63.4
2019-05-03T12:25:17.286Z,62.5
2019-05-03T12:26:48.701Z,61.3
2019-05-03T12:29:06.534Z,60.3
2019-05-03T12:30:11.576Z,60.6
2019-05-03T12:32:36.506Z,60.2
2019-05-03T12:34:32.257Z,58.6
2019-05-03T12:35:59.089Z,56.4
2019-05-03T12:38:01.146Z,54.2
2019-05-03T12:39:35.395Z,52.9
2019-05-03T12:40:42.096Z,51.6
2019-05-03T12:42:47.248Z,50.4
2019-05-03T12:45:08.580Z,49.2
2019-05-03T12:45:58.868Z,48.8
2019-05-03T12:49:41.605Z,47.8
2019-05-03T12:51:13.104Z,48
2019-05-03T14:06:41.062Z,42.3
2019-05-03T14:07:30.553Z,42.3
2019-05-03T14:08:20.945Z,42.3
2019-05-03T14:09:10.966Z,42.2
2019-05-03T14:10:01.013Z,42.1
2019-05-03T14:10:51.353Z,42.1
2019-05-03T14:11:40.850Z,42.1
2019-05-03T14:12:31.450Z,42
2019-05-03T14:13:21.258Z,41.9
2019-05-03T14:14:11.304Z,41.8
2019-05-03T14:15:01.090Z,41.8
2019-05-03T14:15:51.243Z,41.6
2019-05-03T14:16:41.845Z,41.4
2019-05-03T14:17:31.082Z,41.3
2019-05-03T14:18:21.106Z,41.1
2019-05-03T14:19:11.705Z,40.9
2019-05-03T14:20:02.041Z,40.8
2019-05-03T14:20:52.090Z,40.7
2019-05-03T14:21:42.150Z,40.6
2019-05-03T14:22:32.217Z,40.4
2019-05-03T14:23:22.032Z,40.3
2019-05-03T14:24:12.340Z,40.1
2019-05-03T14:25:02.121Z,40
2019-05-03T14:25:52.177Z,39.8
2019-05-03T14:26:42.236Z,39.6
2019-05-03T14:27:34.712Z,39.4
2019-05-03T14:29:15.322Z,39
2019-05-03T14:30:54.598Z,38.6
2019-05-03T14:32:32.684Z,38.3
2019-05-03T14:33:28.059Z,38.1
2019-05-03T14:35:03.155Z,37.8
2019-05-03T14:35:54.885Z,37.6
2019-05-03T14:43:25.885Z,36.5
2019-05-03T14:44:19.661Z,36.4
2019-05-03T14:57:39.804Z,34.8
2019-05-03T15:02:52.295Z,34.1
2019-05-03T15:05:59.789Z,33.6
2019-05-03T15:09:20.779Z,33.2
2019-05-03T15:43:30.831Z,30.3
2019-05-03T15:55:09.136Z,28.9
2019-05-03T15:55:59.186Z,28.8
2019-05-03T15:56:49.246Z,28.7
2019-05-03T15:58:29.363Z,28.5
2019-05-03T15:59:19.428Z,28.4
2019-05-03T16:00:09.516Z,28.3
2019-05-03T16:00:59.577Z,28.2
2019-05-03T16:01:49.635Z,28.1
2019-05-03T16:02:39.693Z,28
2019-05-03T16:03:29.758Z,27.9
2019-05-03T16:04:19.248Z,27.9
2019-05-03T16:06:40.155Z,27.6
2019-05-03T16:07:30.468Z,27.5
2019-05-03T16:08:21.086Z,27.4
2019-05-03T16:09:11.195Z,27.3
2019-05-03T16:10:00.915Z,27.3
2019-05-03T16:10:51.275Z,27.1
2019-05-03T16:11:41.045Z,27
2019-05-03T16:12:31.374Z,26.9
2019-05-03T16:13:21.175Z,26.8
2019-05-03T16:14:11.237Z,26.8
2019-05-03T16:15:01.585Z,26.6
2019-05-03T16:15:51.648Z,26.6
2019-05-03T16:16:41.712Z,26.4
2019-05-03T16:17:31.777Z,26.4
2019-05-03T16:18:21.549Z,26.3
2019-05-03T16:19:11.627Z,26.3
2019-05-03T16:20:01.939Z,26.1
2019-05-03T16:20:51.732Z,26.1
2019-05-03T16:21:41.794Z,26
2019-05-03T16:22:32.128Z,25.9
2019-05-03T16:23:22.193Z,25.8
2019-05-03T16:24:11.990Z,25.8
2019-05-03T16:25:02.326Z,25.7
2019-05-03T16:25:52.102Z,25.6
2019-05-03T16:26:41.899Z,25.6
2019-05-03T16:27:32.229Z,25.5
2019-05-03T16:28:24.712Z,25.4
2019-05-03T16:30:04.995Z,25.3
2019-05-03T16:31:42.546Z,25.2
2019-05-03T16:32:32.614Z,25.1
2019-05-03T16:33:29.881Z,25
2019-05-03T16:35:04.955Z,24.9
2019-05-03T16:37:35.045Z,24.7
2019-05-03T16:40:05.352Z,24.4
2019-05-03T16:43:25.455Z,24.2
2019-05-03T16:51:45.933Z,23.5
2019-05-03T17:03:42.582Z,22.6
2019-05-03T17:05:09.227Z,22.6
2019-05-03T17:59:19.099Z,19.2
2019-05-03T18:00:09.171Z,19.1
2019-05-03T18:00:59.509Z,19.1
2019-05-03T18:01:49.551Z,19
2019-05-03T18:02:39.644Z,18.9
2019-05-03T18:03:29.663Z,18.9
2019-05-03T18:04:19.735Z,18.9
2019-05-03T18:07:32.159Z,18.6
2019-05-03T18:08:21.023Z,18.6
2019-05-03T18:09:10.771Z,18.6
2019-05-03T18:10:00.566Z,18.5
2019-05-03T18:10:50.908Z,18.4
2019-05-03T18:11:41.261Z,18.4
2019-05-03T18:12:31.300Z,18.3
2019-05-03T18:13:21.385Z,18.3
2019-05-03T18:14:11.433Z,18.2
2019-05-03T18:15:00.930Z,18.1
2019-05-03T18:15:51.558Z,18.1
2019-05-03T18:16:41.613Z,18.1
2019-05-03T18:17:31.720Z,18
2019-05-03T18:18:21.748Z,17.9
2019-05-03T18:19:11.802Z,17.9
2019-05-03T18:20:01.865Z,17.9
2019-05-03T18:20:51.645Z,17.8
2019-05-03T18:21:41.718Z,17.8
2019-05-03T18:22:31.757Z,17.7
2019-05-03T18:23:21.828Z,17.7
2019-05-03T18:24:11.887Z,17.6
2019-05-03T18:25:01.964Z,17.6
2019-05-03T18:25:51.747Z,17.6
2019-05-03T18:26:42.350Z,17.5
2019-05-03T18:27:32.143Z,17.4
2019-05-03T18:28:21.942Z,17.4
2019-05-03T18:29:12.272Z,17.4
2019-05-03T18:30:02.342Z,17.3
2019-05-03T18:30:54.567Z,17.3
2019-05-03T18:32:34.340Z,17.2
2019-05-03T18:34:25.497Z,17.1
2019-05-03T18:39:15.164Z,16.9
2019-05-03T18:41:45.023Z,16.8
2019-05-03T18:44:15.758Z,16.8
2019-05-03T18:58:26.393Z,16.4
2019-05-03T19:00:10.086Z,16.4
2019-05-03T19:05:56.212Z,16.2
2019-05-03T19:06:46.465Z,16.1
2019-05-03T19:59:19.249Z,15.4
2019-05-03T20:00:09.300Z,15.4
2019-05-03T20:01:49.437Z,15.4
2019-05-03T20:02:39.498Z,15.4
2019-05-03T20:03:29.550Z,15.4
2019-05-03T20:04:19.324Z,15.4
2019-05-03T20:05:09.432Z,15.4
2019-05-03T20:05:59.724Z,15.4
2019-05-03T20:06:49.799Z,15.4
2019-05-03T20:07:39.576Z,15.4
2019-05-03T20:08:29.665Z,15.4
2019-05-03T20:09:19.704Z,15.4
2019-05-03T20:10:10.077Z,15.4
2019-05-03T20:11:00.121Z,15.5
2019-05-03T20:11:50.181Z,15.4
2019-05-03T20:12:40.251Z,15.4
2019-05-03T20:13:38.864Z,15.4
2019-05-03T20:15:10.166Z,15.3
2019-05-03T20:16:00.213Z,15.3
2019-05-03T20:16:50.590Z,15.2
2019-05-03T20:17:40.618Z,15.2
2019-05-03T20:18:30.170Z,15.1
2019-05-03T20:19:25.435Z,15.1
2019-05-03T20:21:00.563Z,14.9
2019-05-03T20:21:50.945Z,14.9
2019-05-03T20:22:40.960Z,14.9
2019-05-03T20:23:30.757Z,14.9
2019-05-03T20:24:21.108Z,14.8
2019-05-03T20:25:11.168Z,14.8
2019-05-03T20:26:00.941Z,14.8
2019-05-03T20:26:51.275Z,14.7
2019-05-03T20:27:41.345Z,14.6
2019-05-03T20:28:35.918Z,14.6
2019-05-03T20:30:11.298Z,14.6
2019-05-03T20:31:01.585Z,14.6
2019-05-03T20:31:51.653Z,14.6
2019-05-03T20:32:41.717Z,14.6
2019-05-03T20:33:31.768Z,14.6
2019-05-03T20:34:21.840Z,14.6
2019-05-03T20:35:20.998Z,14.6
2019-05-03T20:36:52.027Z,14.6
2019-05-03T20:37:41.576Z,14.6
2019-05-03T20:38:31.882Z,14.6
2019-05-03T20:39:22.248Z,14.5
2019-05-03T20:40:11.715Z,14.5
2019-05-03T20:41:02.337Z,14.5
2019-05-03T20:41:52.402Z,14.4
2019-05-03T20:42:42.459Z,14.4
2019-05-03T20:43:32.247Z,14.4
2019-05-03T20:44:22.045Z,14.4
2019-05-03T20:45:14.344Z,14.3
2019-05-03T20:46:52.516Z,14.3
2019-05-03T20:47:42.841Z,14.3
2019-05-03T20:48:34.853Z,14.3
2019-05-03T20:50:12.757Z,14.2
2019-05-03T20:51:02.824Z,14.2
2019-05-03T20:51:55.365Z,14.2
2019-05-03T20:55:15.336Z,14.1
2019-05-03T20:59:25.014Z,14.3
2019-05-03T21:01:05.519Z,14.3
2019-05-03T21:02:58.314Z,14.3
2019-05-03T21:05:38.143Z,14.3
2019-05-03T21:08:56.344Z,14.3
2019-05-03T21:10:16.668Z,14.2
2019-05-03T21:13:46.050Z,14.1
2019-05-03T21:26:17.937Z,13.8
2019-05-03T21:53:39.775Z,12.8
2019-05-03T21:57:00.000Z,12.7
2019-05-03T22:12:49.197Z,11.9
2019-05-03T22:14:29.290Z,11.8
2019-05-03T22:15:19.374Z,11.8
2019-05-03T22:16:09.134Z,11.7
2019-05-03T22:16:59.500Z,11.7
2019-05-03T22:17:49.277Z,11.7
2019-05-03T22:18:39.039Z,11.6
2019-05-03T22:19:29.669Z,11.6
2019-05-03T22:21:09.797Z,11.5
2019-05-03T22:21:59.576Z,11.4
2019-05-03T22:22:49.639Z,11.4
2019-05-03T22:23:39.999Z,11.4
2019-05-03T22:24:30.035Z,11.4
2019-05-03T22:25:19.834Z,11.4
2019-05-03T22:26:09.899Z,11.3
2019-05-03T22:26:59.984Z,11.3
2019-05-03T22:27:50.017Z,11.3
2019-05-03T22:28:40.341Z,11.3
2019-05-03T22:29:30.133Z,11.3
2019-05-03T22:30:20.467Z,11.3
2019-05-03T22:31:10.531Z,11.2
2019-05-03T22:32:00.348Z,11.2
2019-05-03T22:32:50.384Z,11.2
2019-05-03T22:33:40.456Z,11.2
2019-05-03T22:34:30.536Z,11.1
2019-05-03T22:35:20.580Z,11.1
2019-05-03T22:36:10.829Z,11.1
2019-05-03T22:37:00.711Z,11.1
2019-05-03T22:37:50.768Z,11.1
2019-05-03T22:38:41.106Z,11.1
2019-05-03T22:39:31.181Z,11.1
2019-05-03T22:40:21.228Z,11
2019-05-03T22:41:11.033Z,11
2019-05-03T22:42:01.368Z,11
2019-05-03T22:42:51.139Z,11
2019-05-03T22:43:41.185Z,11
2019-05-03T22:44:31.243Z,10.9
2019-05-03T22:45:21.320Z,10.9
2019-05-03T22:46:11.377Z,10.9
2019-05-03T22:47:01.733Z,10.9
2019-05-03T22:47:51.787Z,10.9
2019-05-03T22:48:41.841Z,10.9
2019-05-03T22:49:31.627Z,10.9
2019-05-03T22:50:21.970Z,10.9
2019-05-03T22:51:11.752Z,10.8
2019-05-03T22:52:02.086Z,10.8
2019-05-03T22:52:51.314Z,10.8
2019-05-03T22:53:42.207Z,10.8
2019-05-03T22:54:32.287Z,10.8
2019-05-03T22:55:22.349Z,10.8
2019-05-03T22:56:14.291Z,10.8
2019-05-03T22:57:51.697Z,10.7
2019-05-03T22:58:42.030Z,10.7
2019-05-03T22:59:34.952Z,10.7
2019-05-03T23:01:16.293Z,10.6
2019-05-03T23:02:54.652Z,10.6
2019-05-03T23:04:32.774Z,10.6
2019-05-03T23:05:23.078Z,10.6
2019-05-03T23:06:26.193Z,10.6
2019-05-03T23:07:55.679Z,10.6
2019-05-03T23:09:35.137Z,10.5
2019-05-03T23:11:13.256Z,10.5
2019-05-03T23:12:05.382Z,10.5
2019-05-03T23:17:56.002Z,10.4
